sensor_id;sensor_type;location;lat;lon;timestamp;pressure;altitude;pressure_sealevel;temperature;humidity
37856;BME280;23694;43.274;26.924;2024-01-06T00:00:59;98752.56;;;8.49;84.22
37856;BME280;23694;43.274;26.924;2024-01-06T00:03:26;98757.97;;;8.46;84.39
37856;BME280;23694;43.274;26.924;2024-01-06T00:05:52;98755.53;;;8.57;85.50
37856;BME280;23694;43.274;26.924;2024-01-06T00:08:18;98749.97;;;8.49;86.73
37856;BME280;23694;43.274;26.924;2024-01-06T00:10:47;98755.44;;;8.59;85.40
37856;BME280;23694;43.274;26.924;2024-01-06T00:13:13;98759.66;;;8.47;83.05
37856;BME280;23694;43.274;26.924;2024-01-06T00:15:40;98742.88;;;8.37;82.74
37856;BME280;23694;43.274;26.924;2024-01-06T00:18:06;98746.50;;;8.35;83.37
37856;BME280;23694;43.274;26.924;2024-01-06T00:20:32;98738.00;;;8.31;82.54
37856;BME280;23694;43.274;26.924;2024-01-06T00:22:58;98731.91;;;7.89;91.89
37856;BME280;23694;43.274;26.924;2024-01-06T00:25:25;98722.75;;;8.11;92.10
37856;BME280;23694;43.274;26.924;2024-01-06T00:27:51;98731.97;;;8.16;88.60
37856;BME280;23694;43.274;26.924;2024-01-06T00:30:17;98727.50;;;8.04;90.04
37856;BME280;23694;43.274;26.924;2024-01-06T00:32:44;98731.31;;;8.13;89.29
37856;BME280;23694;43.274;26.924;2024-01-06T00:35:10;98727.59;;;8.03;87.53
37856;BME280;23694;43.274;26.924;2024-01-06T00:37:36;98711.22;;;8.01;86.81
37856;BME280;23694;43.274;26.924;2024-01-06T00:40:02;98731.16;;;7.87;89.04
37856;BME280;23694;43.274;26.924;2024-01-06T00:42:29;98733.94;;;7.84;89.28
37856;BME280;23694;43.274;26.924;2024-01-06T00:44:56;98711.50;;;7.96;88.67
37856;BME280;23694;43.274;26.924;2024-01-06T00:47:22;98709.91;;;8.08;87.36
37856;BME280;23694;43.274;26.924;2024-01-06T00:49:50;98717.44;;;8.12;87.46
37856;BME280;23694;43.274;26.924;2024-01-06T00:52:16;98721.25;;;8.07;88.02
37856;BME280;23694;43.274;26.924;2024-01-06T00:54:43;98704.31;;;8.14;86.77
37856;BME280;23694;43.274;26.924;2024-01-06T00:57:13;98700.22;;;8.10;86.61
37856;BME280;23694;43.274;26.924;2024-01-06T00:59:42;98692.97;;;8.01;87.81
37856;BME280;23694;43.274;26.924;2024-01-06T01:02:08;98686.44;;;8.08;87.71
37856;BME280;23694;43.274;26.924;2024-01-06T01:04:34;98704.78;;;7.92;88.92
37856;BME280;23694;43.274;26.924;2024-01-06T01:07:00;98693.31;;;8.09;87.51
37856;BME280;23694;43.274;26.924;2024-01-06T01:09:26;98687.75;;;7.86;89.27
37856;BME280;23694;43.274;26.924;2024-01-06T01:11:53;98682.34;;;7.89;88.48
37856;BME280;23694;43.274;26.924;2024-01-06T01:14:19;98702.44;;;8.02;86.61
37856;BME280;23694;43.274;26.924;2024-01-06T01:16:45;98691.53;;;8.09;85.59
37856;BME280;23694;43.274;26.924;2024-01-06T01:19:15;98687.53;;;8.04;84.83
37856;BME280;23694;43.274;26.924;2024-01-06T01:21:41;98688.00;;;8.10;85.04
37856;BME280;23694;43.274;26.924;2024-01-06T01:24:07;98687.16;;;8.10;86.89
37856;BME280;23694;43.274;26.924;2024-01-06T01:26:33;98678.69;;;8.06;87.14
37856;BME280;23694;43.274;26.924;2024-01-06T01:28:59;98673.03;;;8.00;88.32
37856;BME280;23694;43.274;26.924;2024-01-06T01:31:25;98657.72;;;8.08;88.97
37856;BME280;23694;43.274;26.924;2024-01-06T01:33:52;98659.41;;;8.09;89.29
37856;BME280;23694;43.274;26.924;2024-01-06T01:36:18;98661.78;;;8.26;89.00
37856;BME280;23694;43.274;26.924;2024-01-06T01:38:45;98655.38;;;8.17;89.84
37856;BME280;23694;43.274;26.924;2024-01-06T01:41:11;98659.59;;;8.06;91.15
37856;BME280;23694;43.274;26.924;2024-01-06T01:43:37;98648.22;;;8.07;92.45
37856;BME280;23694;43.274;26.924;2024-01-06T01:46:04;98645.63;;;8.07;91.90
37856;BME280;23694;43.274;26.924;2024-01-06T01:48:30;98645.53;;;8.08;91.14
37856;BME280;23694;43.274;26.924;2024-01-06T01:50:59;98640.75;;;8.15;89.87
37856;BME280;23694;43.274;26.924;2024-01-06T01:53:26;98638.72;;;8.06;91.08
37856;BME280;23694;43.274;26.924;2024-01-06T01:55:52;98629.44;;;8.02;92.34
37856;BME280;23694;43.274;26.924;2024-01-06T01:58:19;98633.59;;;8.04;92.47
37856;BME280;23694;43.274;26.924;2024-01-06T02:00:46;98625.97;;;8.01;93.15
37856;BME280;23694;43.274;26.924;2024-01-06T02:03:13;98626.34;;;8.09;92.07
37856;BME280;23694;43.274;26.924;2024-01-06T02:05:39;98624.78;;;7.92;92.32
37856;BME280;23694;43.274;26.924;2024-01-06T02:08:05;98639.13;;;7.85;94.10
37856;BME280;23694;43.274;26.924;2024-01-06T02:10:32;98631.38;;;7.98;94.62
37856;BME280;23694;43.274;26.924;2024-01-06T02:13:08;98620.75;;;8.01;94.62
37856;BME280;23694;43.274;26.924;2024-01-06T02:15:34;98616.31;;;7.75;95.42
37856;BME280;23694;43.274;26.924;2024-01-06T02:18:01;98608.03;;;7.82;95.09
37856;BME280;23694;43.274;26.924;2024-01-06T02:20:28;98620.13;;;7.98;94.32
37856;BME280;23694;43.274;26.924;2024-01-06T02:22:56;98612.75;;;8.04;93.79
37856;BME280;23694;43.274;26.924;2024-01-06T02:25:24;98607.38;;;8.20;92.53
37856;BME280;23694;43.274;26.924;2024-01-06T02:27:51;98594.78;;;8.00;93.33
37856;BME280;23694;43.274;26.924;2024-01-06T02:30:17;98586.28;;;8.10;92.92
37856;BME280;23694;43.274;26.924;2024-01-06T02:32:43;98591.50;;;8.10;94.25
37856;BME280;23694;43.274;26.924;2024-01-06T02:35:09;98583.84;;;8.07;93.52
37856;BME280;23694;43.274;26.924;2024-01-06T02:37:35;98581.19;;;7.94;95.33
37856;BME280;23694;43.274;26.924;2024-01-06T02:40:02;98579.69;;;8.05;95.35
37856;BME280;23694;43.274;26.924;2024-01-06T02:42:29;98578.84;;;8.04;94.74
37856;BME280;23694;43.274;26.924;2024-01-06T02:44:55;98572.28;;;8.11;94.67
37856;BME280;23694;43.274;26.924;2024-01-06T02:47:22;98570.41;;;8.13;93.97
37856;BME280;23694;43.274;26.924;2024-01-06T02:49:50;98569.38;;;8.16;93.10
37856;BME280;23694;43.274;26.924;2024-01-06T02:52:17;98573.06;;;8.26;92.67
37856;BME280;23694;43.274;26.924;2024-01-06T02:54:43;98567.31;;;8.21;92.72
37856;BME280;23694;43.274;26.924;2024-01-06T02:57:09;98566.28;;;7.97;93.37
37856;BME280;23694;43.274;26.924;2024-01-06T02:59:38;98566.31;;;7.82;95.87
37856;BME280;23694;43.274;26.924;2024-01-06T03:02:04;98565.09;;;7.74;94.79
37856;BME280;23694;43.274;26.924;2024-01-06T03:04:33;98572.38;;;7.69;96.68
37856;BME280;23694;43.274;26.924;2024-01-06T03:06:59;98575.19;;;7.66;98.36
37856;BME280;23694;43.274;26.924;2024-01-06T03:09:25;98565.88;;;7.61;99.70
37856;BME280;23694;43.274;26.924;2024-01-06T03:11:52;98551.75;;;7.51;100.00
37856;BME280;23694;43.274;26.924;2024-01-06T03:14:18;98567.47;;;7.50;100.00
37856;BME280;23694;43.274;26.924;2024-01-06T03:16:44;98548.41;;;7.49;100.00
37856;BME280;23694;43.274;26.924;2024-01-06T03:19:10;98547.47;;;7.50;100.00
37856;BME280;23694;43.274;26.924;2024-01-06T03:21:37;98543.63;;;7.56;100.00
37856;BME280;23694;43.274;26.924;2024-01-06T03:24:04;98542.31;;;7.63;100.00
37856;BME280;23694;43.274;26.924;2024-01-06T03:26:30;98541.28;;;7.66;98.89
37856;BME280;23694;43.274;26.924;2024-01-06T03:28:59;98534.16;;;7.55;99.65
37856;BME280;23694;43.274;26.924;2024-01-06T03:31:29;98539.00;;;7.47;100.00
37856;BME280;23694;43.274;26.924;2024-01-06T03:33:55;98540.38;;;7.52;100.00
37856;BME280;23694;43.274;26.924;2024-01-06T03:36:24;98528.00;;;7.56;99.78
37856;BME280;23694;43.274;26.924;2024-01-06T03:38:51;98532.38;;;7.55;99.63
37856;BME280;23694;43.274;26.924;2024-01-06T03:41:17;98532.19;;;7.58;99.65
37856;BME280;23694;43.274;26.924;2024-01-06T03:43:43;98527.63;;;7.62;99.00
37856;BME280;23694;43.274;26.924;2024-01-06T03:46:09;98526.69;;;7.63;98.39
37856;BME280;23694;43.274;26.924;2024-01-06T03:48:35;98548.19;;;7.67;98.29
37856;BME280;23694;43.274;26.924;2024-01-06T03:51:02;98544.94;;;7.63;98.25
37856;BME280;23694;43.274;26.924;2024-01-06T03:53:28;98538.03;;;7.62;97.73
37856;BME280;23694;43.274;26.924;2024-01-06T03:55:55;98538.44;;;7.56;97.83
37856;BME280;23694;43.274;26.924;2024-01-06T03:58:23;98550.63;;;7.55;98.23
37856;BME280;23694;43.274;26.924;2024-01-06T04:00:50;98542.53;;;7.46;97.88
37856;BME280;23694;43.274;26.924;2024-01-06T04:03:16;98534.06;;;7.42;98.36
37856;BME280;23694;43.274;26.924;2024-01-06T04:05:42;98538.44;;;7.42;98.98
37856;BME280;23694;43.274;26.924;2024-01-06T04:08:08;98525.81;;;7.36;98.81
37856;BME280;23694;43.274;26.924;2024-01-06T04:10:34;98531.47;;;7.28;99.67
37856;BME280;23694;43.274;26.924;2024-01-06T04:13:01;98533.81;;;7.32;99.21
37856;BME280;23694;43.274;26.924;2024-01-06T04:15:27;98536.41;;;7.32;98.91
37856;BME280;23694;43.274;26.924;2024-01-06T04:17:54;98550.28;;;7.33;98.73
37856;BME280;23694;43.274;26.924;2024-01-06T04:20:20;98556.22;;;7.35;98.10
37856;BME280;23694;43.274;26.924;2024-01-06T04:22:46;98554.84;;;7.29;98.57
37856;BME280;23694;43.274;26.924;2024-01-06T04:25:13;98548.50;;;7.34;97.59
37856;BME280;23694;43.274;26.924;2024-01-06T04:27:39;98550.63;;;7.41;96.76
37856;BME280;23694;43.274;26.924;2024-01-06T04:30:06;98554.19;;;7.40;96.53
37856;BME280;23694;43.274;26.924;2024-01-06T04:32:32;98566.72;;;7.48;96.31
37856;BME280;23694;43.274;26.924;2024-01-06T04:34:58;98568.78;;;7.43;96.15
37856;BME280;23694;43.274;26.924;2024-01-06T04:37:25;98571.69;;;7.24;96.55
37856;BME280;23694;43.274;26.924;2024-01-06T04:39:51;98566.75;;;7.19;97.03
37856;BME280;23694;43.274;26.924;2024-01-06T04:42:17;98554.28;;;7.24;96.96
37856;BME280;23694;43.274;26.924;2024-01-06T04:44:45;98557.44;;;7.29;96.82
37856;BME280;23694;43.274;26.924;2024-01-06T04:47:11;98559.75;;;7.34;96.34
37856;BME280;23694;43.274;26.924;2024-01-06T04:49:37;98557.53;;;7.28;96.78
37856;BME280;23694;43.274;26.924;2024-01-06T04:52:04;98563.41;;;7.31;96.60
37856;BME280;23694;43.274;26.924;2024-01-06T04:54:30;98563.50;;;7.30;96.95
37856;BME280;23694;43.274;26.924;2024-01-06T04:57:00;98572.97;;;7.31;97.26
37856;BME280;23694;43.274;26.924;2024-01-06T04:59:26;98570.19;;;7.34;96.65
37856;BME280;23694;43.274;26.924;2024-01-06T05:01:53;98577.34;;;7.30;97.60
37856;BME280;23694;43.274;26.924;2024-01-06T05:04:19;98574.38;;;7.37;96.80
37856;BME280;23694;43.274;26.924;2024-01-06T05:06:45;98577.63;;;7.40;96.65
37856;BME280;23694;43.274;26.924;2024-01-06T05:09:11;98566.19;;;7.28;97.74
37856;BME280;23694;43.274;26.924;2024-01-06T05:11:38;98568.69;;;7.30;97.83
37856;BME280;23694;43.274;26.924;2024-01-06T05:14:04;98570.84;;;7.38;97.08
37856;BME280;23694;43.274;26.924;2024-01-06T05:16:30;98569.91;;;7.39;96.70
37856;BME280;23694;43.274;26.924;2024-01-06T05:18:57;98571.47;;;7.41;96.42
37856;BME280;23694;43.274;26.924;2024-01-06T05:21:23;98565.34;;;7.42;95.75
37856;BME280;23694;43.274;26.924;2024-01-06T05:23:50;98574.44;;;7.07;99.54
37856;BME280;23694;43.274;26.924;2024-01-06T05:26:16;98557.78;;;7.09;100.00
37856;BME280;23694;43.274;26.924;2024-01-06T05:28:42;98560.56;;;6.92;100.00
37856;BME280;23694;43.274;26.924;2024-01-06T05:31:08;98593.97;;;6.55;100.00
37856;BME280;23694;43.274;26.924;2024-01-06T05:33:35;98594.25;;;6.65;100.00
37856;BME280;23694;43.274;26.924;2024-01-06T05:36:02;98583.69;;;6.68;100.00
37856;BME280;23694;43.274;26.924;2024-01-06T05:38:29;98585.28;;;6.85;100.00
37856;BME280;23694;43.274;26.924;2024-01-06T05:40:55;98590.09;;;6.77;100.00
37856;BME280;23694;43.274;26.924;2024-01-06T05:43:21;98586.69;;;6.90;100.00
37856;BME280;23694;43.274;26.924;2024-01-06T05:45:48;98584.75;;;6.94;100.00
37856;BME280;23694;43.274;26.924;2024-01-06T05:48:14;98585.78;;;7.06;100.00
37856;BME280;23694;43.274;26.924;2024-01-06T05:50:40;98583.56;;;7.14;100.00
37856;BME280;23694;43.274;26.924;2024-01-06T05:53:07;98578.56;;;7.25;100.00
37856;BME280;23694;43.274;26.924;2024-01-06T05:55:34;98584.13;;;7.19;100.00
37856;BME280;23694;43.274;26.924;2024-01-06T05:58:00;98573.06;;;7.29;100.00
37856;BME280;23694;43.274;26.924;2024-01-06T06:00:27;98572.13;;;7.30;100.00
37856;BME280;23694;43.274;26.924;2024-01-06T06:02:53;98582.09;;;7.38;100.00
37856;BME280;23694;43.274;26.924;2024-01-06T06:05:19;98581.16;;;7.53;100.00
37856;BME280;23694;43.274;26.924;2024-01-06T06:07:46;98569.03;;;8.49;100.00
37856;BME280;23694;43.274;26.924;2024-01-06T06:10:12;98572.06;;;9.70;93.54
37856;BME280;23694;43.274;26.924;2024-01-06T06:12:39;98586.19;;;10.64;80.36
37856;BME280;23694;43.274;26.924;2024-01-06T06:15:05;98572.91;;;10.43;76.79
37856;BME280;23694;43.274;26.924;2024-01-06T06:17:32;98569.34;;;10.79;74.36
37856;BME280;23694;43.274;26.924;2024-01-06T06:19:59;98563.34;;;11.46;70.06
37856;BME280;23694;43.274;26.924;2024-01-06T06:22:26;98573.78;;;12.35;67.35
37856;BME280;23694;43.274;26.924;2024-01-06T06:24:57;98570.06;;;13.12;61.94
37856;BME280;23694;43.274;26.924;2024-01-06T06:27:23;98570.69;;;13.04;60.28
37856;BME280;23694;43.274;26.924;2024-01-06T06:29:50;98574.72;;;12.87;60.34
37856;BME280;23694;43.274;26.924;2024-01-06T06:32:16;98575.78;;;12.43;61.31
37856;BME280;23694;43.274;26.924;2024-01-06T06:34:42;98558.72;;;11.72;63.72
37856;BME280;23694;43.274;26.924;2024-01-06T06:37:09;98577.81;;;10.48;72.02
37856;BME280;23694;43.274;26.924;2024-01-06T06:39:35;98563.63;;;10.03;74.88
37856;BME280;23694;43.274;26.924;2024-01-06T06:42:02;98576.91;;;9.50;80.86
37856;BME280;23694;43.274;26.924;2024-01-06T06:44:29;98568.56;;;9.45;81.55
37856;BME280;23694;43.274;26.924;2024-01-06T06:46:56;98584.97;;;9.09;85.79
37856;BME280;23694;43.274;26.924;2024-01-06T06:49:22;98564.69;;;9.00;87.98
37856;BME280;23694;43.274;26.924;2024-01-06T06:51:52;98561.88;;;8.90;89.79
37856;BME280;23694;43.274;26.924;2024-01-06T06:54:18;98571.16;;;8.95;90.21
37856;BME280;23694;43.274;26.924;2024-01-06T06:56:44;98568.47;;;9.09;91.06
37856;BME280;23694;43.274;26.924;2024-01-06T06:59:11;98567.75;;;9.19;90.85
37856;BME280;23694;43.274;26.924;2024-01-06T07:01:38;98563.13;;;9.36;89.56
37856;BME280;23694;43.274;26.924;2024-01-06T07:04:04;98558.22;;;9.44;88.86
37856;BME280;23694;43.274;26.924;2024-01-06T07:06:30;98548.78;;;9.54;89.00
37856;BME280;23694;43.274;26.924;2024-01-06T07:08:57;98552.00;;;9.58;88.88
37856;BME280;23694;43.274;26.924;2024-01-06T07:11:23;98546.69;;;9.59;88.75
37856;BME280;23694;43.274;26.924;2024-01-06T07:13:50;98548.34;;;9.60;87.91
37856;BME280;23694;43.274;26.924;2024-01-06T07:16:16;98551.03;;;9.71;88.19
37856;BME280;23694;43.274;26.924;2024-01-06T07:18:42;98543.28;;;9.70;87.59
37856;BME280;23694;43.274;26.924;2024-01-06T07:21:09;98536.38;;;9.81;86.95
37856;BME280;23694;43.274;26.924;2024-01-06T07:23:35;98532.94;;;10.05;86.84
37856;BME280;23694;43.274;26.924;2024-01-06T07:26:02;98547.09;;;10.26;85.07
37856;BME280;23694;43.274;26.924;2024-01-06T07:28:29;98531.44;;;10.61;84.27
37856;BME280;23694;43.274;26.924;2024-01-06T07:30:55;98530.44;;;11.64;80.07
37856;BME280;23694;43.274;26.924;2024-01-06T07:33:21;98525.56;;;13.60;65.18
37856;BME280;23694;43.274;26.924;2024-01-06T07:35:47;98509.84;;;13.09;64.63
37856;BME280;23694;43.274;26.924;2024-01-06T07:38:14;98516.56;;;12.81;66.28
37856;BME280;23694;43.274;26.924;2024-01-06T07:40:40;98527.34;;;12.78;66.65
37856;BME280;23694;43.274;26.924;2024-01-06T07:43:08;98527.09;;;12.60;67.33
37856;BME280;23694;43.274;26.924;2024-01-06T07:45:35;98527.22;;;12.37;68.79
37856;BME280;23694;43.274;26.924;2024-01-06T07:48:01;98526.75;;;12.21;69.86
37856;BME280;23694;43.274;26.924;2024-01-06T07:50:28;98507.78;;;11.86;71.75
37856;BME280;23694;43.274;26.924;2024-01-06T07:52:54;98511.94;;;11.99;71.38
37856;BME280;23694;43.274;26.924;2024-01-06T07:55:21;98503.50;;;11.85;72.26
37856;BME280;23694;43.274;26.924;2024-01-06T07:57:47;98509.34;;;11.88;72.43
37856;BME280;23694;43.274;26.924;2024-01-06T08:00:13;98513.88;;;11.75;74.14
37856;BME280;23694;43.274;26.924;2024-01-06T08:02:41;98513.66;;;11.44;78.13
37856;BME280;23694;43.274;26.924;2024-01-06T08:05:08;98521.63;;;11.43;82.02
37856;BME280;23694;43.274;26.924;2024-01-06T08:07:34;98511.16;;;11.43;81.86
37856;BME280;23694;43.274;26.924;2024-01-06T08:10:00;98514.56;;;11.66;82.54
37856;BME280;23694;43.274;26.924;2024-01-06T08:12:26;98524.91;;;12.65;79.28
37856;BME280;23694;43.274;26.924;2024-01-06T08:14:52;98517.59;;;14.50;69.15
37856;BME280;23694;43.274;26.924;2024-01-06T08:17:19;98494.38;;;16.29;58.66
37856;BME280;23694;43.274;26.924;2024-01-06T08:19:45;98495.78;;;17.63;52.89
37856;BME280;23694;43.274;26.924;2024-01-06T08:22:13;98488.81;;;19.73;47.28
37856;BME280;23694;43.274;26.924;2024-01-06T08:24:39;98492.25;;;22.14;40.82
37856;BME280;23694;43.274;26.924;2024-01-06T08:27:09;98484.53;;;24.00;35.74
37856;BME280;23694;43.274;26.924;2024-01-06T08:29:35;98493.78;;;24.98;32.87
37856;BME280;23694;43.274;26.924;2024-01-06T08:32:04;98493.13;;;24.37;33.99
37856;BME280;23694;43.274;26.924;2024-01-06T08:34:30;98480.81;;;23.94;34.68
37856;BME280;23694;43.274;26.924;2024-01-06T08:36:56;98490.28;;;25.04;33.07
37856;BME280;23694;43.274;26.924;2024-01-06T08:39:22;98489.22;;;24.59;33.39
37856;BME280;23694;43.274;26.924;2024-01-06T08:41:50;98497.66;;;22.85;36.50
37856;BME280;23694;43.274;26.924;2024-01-06T08:44:16;98489.69;;;21.55;39.34
37856;BME280;23694;43.274;26.924;2024-01-06T08:46:43;98491.50;;;20.27;44.20
37856;BME280;23694;43.274;26.924;2024-01-06T08:49:09;98493.66;;;18.82;48.12
37856;BME280;23694;43.274;26.924;2024-01-06T08:51:35;98472.66;;;17.39;53.64
37856;BME280;23694;43.274;26.924;2024-01-06T08:54:04;98477.38;;;17.19;56.05
37856;BME280;23694;43.274;26.924;2024-01-06T08:56:34;98466.38;;;16.62;58.77
37856;BME280;23694;43.274;26.924;2024-01-06T08:59:01;98463.56;;;16.20;61.50
37856;BME280;23694;43.274;26.924;2024-01-06T09:01:27;98461.88;;;15.83;63.67
37856;BME280;23694;43.274;26.924;2024-01-06T09:03:53;98462.56;;;15.31;66.88
37856;BME280;23694;43.274;26.924;2024-01-06T09:06:20;98460.75;;;15.31;67.38
37856;BME280;23694;43.274;26.924;2024-01-06T09:08:46;98456.09;;;15.15;67.82
37856;BME280;23694;43.274;26.924;2024-01-06T09:11:13;98452.44;;;14.99;68.69
37856;BME280;23694;43.274;26.924;2024-01-06T09:13:39;98445.22;;;14.91;69.45
37856;BME280;23694;43.274;26.924;2024-01-06T09:16:05;98441.03;;;14.98;69.70
37856;BME280;23694;43.274;26.924;2024-01-06T09:18:32;98440.63;;;15.03;69.67
37856;BME280;23694;43.274;26.924;2024-01-06T09:20:58;98431.97;;;15.10;69.27
37856;BME280;23694;43.274;26.924;2024-01-06T09:23:24;98431.97;;;15.10;69.21
37856;BME280;23694;43.274;26.924;2024-01-06T09:25:50;98422.44;;;14.90;70.47
37856;BME280;23694;43.274;26.924;2024-01-06T09:28:18;98415.00;;;14.76;71.25
37856;BME280;23694;43.274;26.924;2024-01-06T09:30:44;98408.97;;;14.93;69.80
37856;BME280;23694;43.274;26.924;2024-01-06T09:33:11;98415.66;;;14.97;70.37
37856;BME280;23694;43.274;26.924;2024-01-06T09:35:41;98405.00;;;14.79;71.63
37856;BME280;23694;43.274;26.924;2024-01-06T09:38:10;98406.56;;;14.72;71.77
37856;BME280;23694;43.274;26.924;2024-01-06T09:40:42;98406.22;;;14.85;72.26
37856;BME280;23694;43.274;26.924;2024-01-06T09:43:12;98411.41;;;14.77;71.80
37856;BME280;23694;43.274;26.924;2024-01-06T09:45:38;98422.88;;;14.85;71.67
37856;BME280;23694;43.274;26.924;2024-01-06T09:48:12;98406.72;;;15.08;69.20
37856;BME280;23694;43.274;26.924;2024-01-06T09:50:42;98399.59;;;15.18;68.22
37856;BME280;23694;43.274;26.924;2024-01-06T09:53:13;98397.47;;;15.21;67.95
37856;BME280;23694;43.274;26.924;2024-01-06T09:55:40;98391.47;;;15.29;67.54
37856;BME280;23694;43.274;26.924;2024-01-06T09:58:08;98386.25;;;15.19;67.78
37856;BME280;23694;43.274;26.924;2024-01-06T10:00:34;98364.38;;;15.09;67.59
37856;BME280;23694;43.274;26.924;2024-01-06T10:03:01;98368.53;;;15.12;67.30
37856;BME280;23694;43.274;26.924;2024-01-06T10:05:27;98371.63;;;15.25;67.29
37856;BME280;23694;43.274;26.924;2024-01-06T10:07:53;98362.28;;;15.31;66.18
37856;BME280;23694;43.274;26.924;2024-01-06T10:10:22;98358.53;;;15.33;66.90
37856;BME280;23694;43.274;26.924;2024-01-06T10:12:52;98359.59;;;15.40;68.44
37856;BME280;23694;43.274;26.924;2024-01-06T10:15:21;98348.13;;;15.49;67.26
37856;BME280;23694;43.274;26.924;2024-01-06T10:17:48;98352.97;;;15.54;66.71
37856;BME280;23694;43.274;26.924;2024-01-06T10:20:14;98348.66;;;15.53;67.40
37856;BME280;23694;43.274;26.924;2024-01-06T10:22:42;98343.78;;;15.58;67.64
37856;BME280;23694;43.274;26.924;2024-01-06T10:25:11;98346.56;;;15.57;67.57
37856;BME280;23694;43.274;26.924;2024-01-06T10:27:38;98339.69;;;15.28;64.81
37856;BME280;23694;43.274;26.924;2024-01-06T10:30:10;98336.44;;;15.52;66.00
37856;BME280;23694;43.274;26.924;2024-01-06T10:32:36;98332.00;;;15.52;65.09
37856;BME280;23694;43.274;26.924;2024-01-06T10:35:04;98338.78;;;15.65;65.17
37856;BME280;23694;43.274;26.924;2024-01-06T10:37:32;98328.69;;;15.50;63.85
37856;BME280;23694;43.274;26.924;2024-01-06T10:40:12;98321.66;;;15.69;63.04
37856;BME280;23694;43.274;26.924;2024-01-06T10:42:40;98329.19;;;15.64;63.66
37856;BME280;23694;43.274;26.924;2024-01-06T10:45:09;98312.66;;;15.79;62.53
37856;BME280;23694;43.274;26.924;2024-01-06T10:47:36;98316.16;;;16.06;61.18
37856;BME280;23694;43.274;26.924;2024-01-06T10:50:04;98308.22;;;16.06;60.84
37856;BME280;23694;43.274;26.924;2024-01-06T10:52:31;98303.81;;;16.14;60.84
37856;BME280;23694;43.274;26.924;2024-01-06T10:54:57;98295.38;;;16.11;61.04
37856;BME280;23694;43.274;26.924;2024-01-06T10:57:24;98287.31;;;16.12;61.08
37856;BME280;23694;43.274;26.924;2024-01-06T10:59:51;98290.88;;;16.03;61.16
37856;BME280;23694;43.274;26.924;2024-01-06T11:02:19;98286.25;;;16.05;60.98
37856;BME280;23694;43.274;26.924;2024-01-06T11:04:46;98285.47;;;16.13;61.21
37856;BME280;23694;43.274;26.924;2024-01-06T11:07:15;98279.72;;;16.17;60.65
37856;BME280;23694;43.274;26.924;2024-01-06T11:09:59;98269.78;;;16.11;61.04
37856;BME280;23694;43.274;26.924;2024-01-06T11:12:28;98267.56;;;15.99;61.47
37856;BME280;23694;43.274;26.924;2024-01-06T11:14:54;98288.19;;;15.95;62.62
37856;BME280;23694;43.274;26.924;2024-01-06T11:17:52;98288.59;;;16.34;60.18
37856;BME280;23694;43.274;26.924;2024-01-06T11:20:20;98285.72;;;16.54;58.74
37856;BME280;23694;43.274;26.924;2024-01-06T11:22:50;98273.91;;;16.66;58.73
37856;BME280;23694;43.274;26.924;2024-01-06T11:25:19;98261.69;;;17.15;56.84
37856;BME280;23694;43.274;26.924;2024-01-06T11:27:47;98250.00;;;17.74;54.39
37856;BME280;23694;43.274;26.924;2024-01-06T11:30:23;98247.16;;;17.92;54.48
37856;BME280;23694;43.274;26.924;2024-01-06T11:32:54;98248.66;;;18.58;51.10
37856;BME280;23694;43.274;26.924;2024-01-06T11:35:22;98238.34;;;18.72;50.92
37856;BME280;23694;43.274;26.924;2024-01-06T11:37:51;98248.41;;;18.84;50.05
37856;BME280;23694;43.274;26.924;2024-01-06T11:42:48;98238.06;;;17.87;52.76
37856;BME280;23694;43.274;26.924;2024-01-06T11:45:15;98237.53;;;17.18;54.90
37856;BME280;23694;43.274;26.924;2024-01-06T11:47:48;98236.97;;;16.90;56.88
37856;BME280;23694;43.274;26.924;2024-01-06T11:50:17;98228.25;;;16.64;58.22
37856;BME280;23694;43.274;26.924;2024-01-06T11:52:45;98228.56;;;16.53;58.45
37856;BME280;23694;43.274;26.924;2024-01-06T11:55:11;98241.44;;;16.22;60.02
37856;BME280;23694;43.274;26.924;2024-01-06T11:57:37;98235.44;;;16.71;58.76
37856;BME280;23694;43.274;26.924;2024-01-06T12:00:05;98232.72;;;16.63;58.91
37856;BME280;23694;43.274;26.924;2024-01-06T12:02:31;98238.81;;;16.22;60.66
37856;BME280;23694;43.274;26.924;2024-01-06T12:04:58;98221.63;;;15.92;62.30
37856;BME280;23694;43.274;26.924;2024-01-06T12:07:24;98224.59;;;15.63;63.98
37856;BME280;23694;43.274;26.924;2024-01-06T12:10:00;98223.41;;;15.83;64.25
37856;BME280;23694;43.274;26.924;2024-01-06T12:12:27;98234.06;;;15.73;63.97
37856;BME280;23694;43.274;26.924;2024-01-06T12:14:54;98232.72;;;15.69;64.43
37856;BME280;23694;43.274;26.924;2024-01-06T12:17:21;98218.59;;;15.78;64.36
37856;BME280;23694;43.274;26.924;2024-01-06T12:19:47;98218.13;;;15.83;64.14
37856;BME280;23694;43.274;26.924;2024-01-06T12:22:14;98227.25;;;15.53;65.55
37856;BME280;23694;43.274;26.924;2024-01-06T12:24:41;98215.56;;;15.55;65.90
37856;BME280;23694;43.274;26.924;2024-01-06T12:27:09;98222.66;;;15.55;66.16
37856;BME280;23694;43.274;26.924;2024-01-06T12:29:40;98216.19;;;15.67;65.43
37856;BME280;23694;43.274;26.924;2024-01-06T12:32:07;98220.00;;;15.55;65.97
37856;BME280;23694;43.274;26.924;2024-01-06T12:34:34;98217.34;;;15.91;65.01
37856;BME280;23694;43.274;26.924;2024-01-06T12:37:01;98226.25;;;16.24;63.67
37856;BME280;23694;43.274;26.924;2024-01-06T12:39:29;98229.31;;;16.37;62.58
37856;BME280;23694;43.274;26.924;2024-01-06T12:41:56;98213.63;;;16.09;63.42
37856;BME280;23694;43.274;26.924;2024-01-06T12:44:22;98226.50;;;16.04;63.90
37856;BME280;23694;43.274;26.924;2024-01-06T12:46:52;98216.22;;;16.27;63.06
37856;BME280;23694;43.274;26.924;2024-01-06T12:49:19;98212.19;;;16.15;63.32
37856;BME280;23694;43.274;26.924;2024-01-06T12:51:45;98213.13;;;16.06;63.95
37856;BME280;23694;43.274;26.924;2024-01-06T12:54:11;98217.19;;;15.92;64.57
37856;BME280;23694;43.274;26.924;2024-01-06T12:56:38;98220.81;;;15.91;64.63